createdAt,value
2018-07-11T00:00:24.633Z,10.69
2018-07-11T00:01:24.607Z,10.67
2018-07-11T00:02:24.343Z,10.59
2018-07-11T00:03:24.589Z,10.52
2018-07-11T00:04:24.588Z,10.55
2018-07-11T00:05:24.312Z,10.55
2018-07-11T00:06:24.561Z,10.54
2018-07-11T00:07:24.554Z,10.55
2018-07-11T00:08:24.544Z,10.47
2018-07-11T00:09:24.281Z,10.42
2018-07-11T00:10:24.531Z,10.39
2018-07-11T00:11:24.521Z,10.31
2018-07-11T00:12:24.513Z,10.33
2018-07-11T00:13:24.504Z,10.26
2018-07-11T00:14:24.241Z,10.21
2018-07-11T00:15:24.486Z,10.32
2018-07-11T00:16:24.483Z,10.28
2018-07-11T00:17:24.212Z,10.17
2018-07-11T00:18:24.204Z,10.26
2018-07-11T00:19:24.455Z,10.29
2018-07-11T00:20:24.184Z,10.15
2018-07-11T00:21:24.440Z,10.11
2018-07-11T00:22:24.172Z,10.05
2018-07-11T00:23:24.164Z,10.07
2018-07-11T00:24:24.408Z,10.07
2018-07-11T00:25:24.402Z,10
2018-07-11T00:26:24.392Z,9.98
2018-07-11T00:27:24.381Z,10.03
2018-07-11T00:28:24.373Z,9.98
2018-07-11T00:29:24.110Z,9.95
2018-07-11T00:30:24.355Z,10.03
2018-07-11T00:31:24.346Z,9.99
2018-07-11T00:32:24.345Z,9.95
2018-07-11T00:33:24.334Z,9.9
2018-07-11T00:34:24.322Z,9.95
2018-07-11T00:35:24.318Z,9.92
2018-07-11T00:36:24.299Z,9.93
2018-07-11T00:37:23.947Z,9.95
2018-07-11T00:38:24.287Z,9.92
2018-07-11T00:39:24.274Z,9.82
2018-07-11T00:40:24.272Z,9.81
2018-07-11T00:41:24.256Z,9.8
2018-07-11T00:42:24.251Z,9.85
2018-07-11T00:43:24.243Z,9.77
2018-07-11T00:44:24.032Z,9.72
2018-07-11T00:45:24.244Z,9.75
2018-07-11T00:46:24.216Z,9.71
2018-07-11T00:47:24.204Z,9.71
2018-07-11T00:48:24.199Z,9.66
2018-07-11T00:49:23.936Z,9.56
2018-07-11T00:50:24.178Z,9.56
2018-07-11T00:51:24.166Z,9.56
2018-07-11T00:52:24.162Z,9.5
2018-07-11T00:53:24.173Z,9.5
2018-07-11T00:54:24.186Z,9.47
2018-07-11T00:55:23.902Z,9.52
2018-07-11T00:56:24.179Z,9.48
2018-07-11T00:57:23.928Z,9.47
2018-07-11T00:58:24.114Z,9.44
2018-07-11T00:59:24.183Z,9.45
2018-07-11T01:00:24.191Z,9.45
2018-07-11T01:01:24.155Z,9.44
2018-07-11T01:02:24.128Z,9.48
2018-07-11T01:03:23.827Z,9.32
2018-07-11T01:04:24.062Z,9.42
2018-07-11T01:05:23.793Z,9.3
2018-07-11T01:06:24.056Z,9.35
2018-07-11T01:07:24.105Z,9.37
2018-07-11T01:08:23.865Z,9.27
2018-07-11T01:09:23.813Z,9.37
2018-07-11T01:10:24.040Z,9.35
2018-07-11T01:11:23.736Z,9.34
2018-07-11T01:12:24.029Z,9.39
2018-07-11T01:13:24.023Z,9.38
2018-07-11T01:14:24.004Z,9.29
2018-07-11T01:15:23.991Z,9.27
2018-07-11T01:16:23.960Z,9.3
2018-07-11T01:17:23.966Z,9.3
2018-07-11T01:18:23.970Z,9.24
2018-07-11T01:19:23.965Z,9.32
2018-07-11T01:20:23.908Z,9.19
2018-07-11T01:21:23.635Z,9.2
2018-07-11T01:22:23.625Z,9.21
2018-07-11T01:23:23.917Z,9.23
2018-07-11T01:24:23.601Z,9.21
2018-07-11T01:25:23.872Z,9.23
2018-07-11T01:26:23.845Z,9.2
2018-07-11T01:27:23.847Z,9.2
2018-07-11T01:28:23.564Z,9.2
2018-07-11T01:29:23.814Z,9.23
2018-07-11T01:30:23.551Z,9.17
2018-07-11T01:31:23.540Z,9.23
2018-07-11T01:32:23.784Z,9.17
2018-07-11T01:33:23.778Z,9.27
2018-07-11T01:34:23.760Z,9.3
2018-07-11T01:35:23.756Z,9.32
2018-07-11T01:36:23.740Z,9.35
2018-07-11T01:37:23.736Z,9.37
2018-07-11T01:38:23.727Z,9.5
2018-07-11T01:39:23.717Z,9.57
2018-07-11T01:40:23.717Z,9.5
2018-07-11T01:41:23.439Z,9.57
2018-07-11T01:42:23.434Z,9.7
2018-07-11T01:43:23.677Z,9.67
2018-07-11T01:44:23.413Z,9.72
2018-07-11T01:45:23.662Z,9.78
2018-07-11T01:46:23.398Z,9.85
2018-07-11T01:47:23.646Z,9.9
2018-07-11T01:48:23.629Z,9.92
2018-07-11T01:49:23.365Z,9.93
2018-07-11T01:50:23.356Z,10.05
2018-07-11T01:51:23.600Z,10.02
2018-07-11T01:52:23.334Z,10
2018-07-11T01:53:23.592Z,10.05
2018-07-11T01:54:23.574Z,10.15
2018-07-11T01:55:23.568Z,10.13
2018-07-11T01:56:23.558Z,10.15
2018-07-11T01:57:23.542Z,10.18
2018-07-11T01:58:23.537Z,10.17
2018-07-11T01:59:23.521Z,10.25
2018-07-11T02:00:23.265Z,10.2
2018-07-11T02:01:23.509Z,10.21
2018-07-11T02:02:23.499Z,10.21
2018-07-11T02:03:23.494Z,10.18
2018-07-11T02:04:23.482Z,10.28
2018-07-11T02:05:23.474Z,10.25
2018-07-11T02:06:23.466Z,10.32
2018-07-11T02:07:23.196Z,10.32
2018-07-11T02:08:23.189Z,10.44
2018-07-11T02:09:23.439Z,10.44
2018-07-11T02:10:23.173Z,10.39
2018-07-11T02:11:23.423Z,10.51
2018-07-11T02:12:23.159Z,10.44
2018-07-11T02:13:23.405Z,10.52
2018-07-11T02:14:23.395Z,10.54
2018-07-11T02:15:23.384Z,10.52
2018-07-11T02:16:23.368Z,10.54
2018-07-11T02:17:23.361Z,10.55
2018-07-11T02:18:23.367Z,10.58
2018-07-11T02:19:23.407Z,10.57
2018-07-11T02:20:23.353Z,10.7
2018-07-11T02:21:23.345Z,10.7
2018-07-11T02:22:23.066Z,10.65
2018-07-11T02:23:23.326Z,10.65
2018-07-11T02:24:23.314Z,10.67
2018-07-11T02:25:23.290Z,10.65
2018-07-11T02:26:23.134Z,10.75
2018-07-11T02:27:23.355Z,10.69
2018-07-11T02:28:23.019Z,10.75
2018-07-11T02:29:23.267Z,10.76
2018-07-11T02:30:23.046Z,10.77
2018-07-11T02:31:23.070Z,10.73
2018-07-11T02:32:23.321Z,10.75
2018-07-11T02:33:23.316Z,10.77
2018-07-11T02:34:23.283Z,10.87
2018-07-11T02:35:23.251Z,10.84
2018-07-11T02:36:23.018Z,10.84
2018-07-11T02:37:22.954Z,10.91
2018-07-11T02:38:22.938Z,10.92
2018-07-11T02:39:23.179Z,10.94
2018-07-11T02:40:23.198Z,10.88
2018-07-11T02:41:23.149Z,10.98
2018-07-11T02:42:23.145Z,10.85
2018-07-11T02:43:22.879Z,10.88
2018-07-11T02:44:23.123Z,10.95
2018-07-11T02:45:23.121Z,10.85
2018-07-11T02:46:22.853Z,10.84
2018-07-11T02:47:23.101Z,10.88
2018-07-11T02:48:23.096Z,10.85
2018-07-11T02:49:23.081Z,10.8
2018-07-11T02:50:23.083Z,10.87
2018-07-11T02:51:23.067Z,10.88
2018-07-11T02:52:23.055Z,10.92
2018-07-11T02:53:23.043Z,10.94
2018-07-11T02:54:23.042Z,10.91
2018-07-11T02:55:23.049Z,10.85
2018-07-11T02:56:23.017Z,10.97
2018-07-11T02:57:23.015Z,10.83
2018-07-11T02:58:23.017Z,10.79
2018-07-11T02:59:22.736Z,10.87
2018-07-11T03:00:22.990Z,10.83
2018-07-11T03:01:23.041Z,10.79
2018-07-11T03:02:22.708Z,10.85
2018-07-11T03:03:22.963Z,10.79
2018-07-11T03:04:22.952Z,10.76
2018-07-11T03:05:22.951Z,10.84
2018-07-11T03:06:22.936Z,10.91
2018-07-11T03:07:22.922Z,10.84
2018-07-11T03:08:22.931Z,10.79
2018-07-11T03:09:22.922Z,10.8
2018-07-11T03:10:22.642Z,10.76
2018-07-11T03:11:22.633Z,10.77
2018-07-11T03:12:22.878Z,10.84
2018-07-11T03:13:22.871Z,10.85
2018-07-11T03:14:22.878Z,10.84
2018-07-11T03:15:22.857Z,10.8
2018-07-11T03:16:22.856Z,10.8
2018-07-11T03:17:22.844Z,10.84
2018-07-11T03:18:22.833Z,10.83
2018-07-11T03:19:22.817Z,10.94
2018-07-11T03:20:22.810Z,10.87
2018-07-11T03:21:22.808Z,10.97
2018-07-11T03:22:22.801Z,10.88
2018-07-11T03:23:22.794Z,10.87
2018-07-11T03:24:22.776Z,10.88
2018-07-11T03:25:22.769Z,11
2018-07-11T03:26:22.766Z,10.88
2018-07-11T03:27:22.769Z,11
2018-07-11T03:28:22.741Z,10.97
2018-07-11T03:29:22.478Z,10.95
2018-07-11T03:30:22.756Z,11.05
2018-07-11T03:31:22.494Z,10.95
2018-07-11T03:32:22.501Z,11.02
2018-07-11T03:33:22.696Z,10.97
2018-07-11T03:34:22.696Z,10.97
2018-07-11T03:35:22.681Z,10.98
2018-07-11T03:36:22.666Z,10.97
2018-07-11T03:37:22.403Z,10.98
2018-07-11T03:38:22.661Z,10.92
2018-07-11T03:39:22.645Z,11.03
2018-07-11T03:40:22.652Z,10.97
2018-07-11T03:41:22.631Z,10.95
2018-07-11T03:42:22.103Z,10.9
2018-07-11T03:43:22.611Z,10.92
2018-07-11T03:44:22.604Z,10.88
2018-07-11T03:45:22.336Z,10.95
2018-07-11T03:46:22.585Z,10.9
2018-07-11T03:47:22.590Z,10.94
2018-07-11T03:48:22.570Z,11.02
2018-07-11T03:49:22.306Z,11
2018-07-11T03:50:22.297Z,11.02
2018-07-11T03:51:22.541Z,10.91
2018-07-11T03:52:22.530Z,10.85
2018-07-11T03:53:22.533Z,10.87
2018-07-11T03:54:22.264Z,10.94
2018-07-11T03:55:22.509Z,10.97
2018-07-11T03:56:22.245Z,10.87
2018-07-11T03:57:22.232Z,10.91
2018-07-11T03:58:22.485Z,10.91
2018-07-11T03:59:22.474Z,10.87
2018-07-11T04:00:22.512Z,10.88
2018-07-11T04:01:22.203Z,10.87
2018-07-11T04:02:22.186Z,10.88
2018-07-11T04:03:22.181Z,11.06
2018-07-11T04:04:22.435Z,11.03
2018-07-11T04:05:22.426Z,11.02
2018-07-11T04:06:22.159Z,11.02
2018-07-11T04:07:22.404Z,11.08
2018-07-11T04:08:22.142Z,11.12
2018-07-11T04:09:22.389Z,11.13
2018-07-11T04:10:22.376Z,11.33
2018-07-11T04:11:22.419Z,11.35
2018-07-11T04:12:22.366Z,11.45
2018-07-11T04:13:22.350Z,11.45
2018-07-11T04:14:22.341Z,11.57
2018-07-11T04:15:22.079Z,11.57
2018-07-11T04:16:22.323Z,11.56
2018-07-11T04:17:22.318Z,11.61
2018-07-11T04:18:22.058Z,11.68
2018-07-11T04:19:22.049Z,11.71
2018-07-11T04:20:22.298Z,11.79
2018-07-11T04:21:22.286Z,11.86
2018-07-11T04:22:22.019Z,11.85
2018-07-11T04:23:22.266Z,11.82
2018-07-11T04:24:22.263Z,11.98
2018-07-11T04:25:22.253Z,12.01
2018-07-11T04:26:22.260Z,12.04
2018-07-11T04:27:22.037Z,12.13
2018-07-11T04:28:22.233Z,12.05
2018-07-11T04:29:21.965Z,12.19
2018-07-11T04:30:22.217Z,12.19
2018-07-11T04:31:22.262Z,12.19
2018-07-11T04:32:22.199Z,12.31
2018-07-11T04:33:22.246Z,12.34
2018-07-11T04:34:22.184Z,12.38
2018-07-11T04:35:22.173Z,12.44
2018-07-11T04:36:22.163Z,12.52
2018-07-11T04:37:22.156Z,12.51
2018-07-11T04:38:22.151Z,12.55
2018-07-11T04:39:22.146Z,12.63
2018-07-11T04:40:22.142Z,12.74
2018-07-11T04:41:22.128Z,12.81
2018-07-11T04:42:22.127Z,12.83
2018-07-11T04:43:21.856Z,12.89
2018-07-11T04:44:21.849Z,12.95
2018-07-11T04:45:21.840Z,13.09
2018-07-11T04:46:22.087Z,13.02
2018-07-11T04:47:22.081Z,13.13
2018-07-11T04:48:22.074Z,13.19
2018-07-11T04:49:21.812Z,13.11
2018-07-11T04:50:21.807Z,13.13
2018-07-11T04:51:22.056Z,13.03
2018-07-11T04:52:22.046Z,12.99
2018-07-11T04:53:22.054Z,12.92
2018-07-11T04:54:22.030Z,12.96
2018-07-11T04:55:22.031Z,12.99
2018-07-11T04:56:22.029Z,12.92
2018-07-11T04:57:21.749Z,12.83
2018-07-11T04:58:22.002Z,12.91
2018-07-11T04:59:21.995Z,12.94
2018-07-11T05:00:21.982Z,12.98
2018-07-11T05:01:21.978Z,13.06
2018-07-11T05:02:21.976Z,13.1
2018-07-11T05:03:21.965Z,13.11
2018-07-11T05:04:21.957Z,13.11
2018-07-11T05:05:21.951Z,13.09
2018-07-11T05:06:21.946Z,13.13
2018-07-11T05:07:21.680Z,13.13
2018-07-11T05:08:21.417Z,13.11
2018-07-11T05:09:21.663Z,12.99
2018-07-11T05:10:21.657Z,12.94
2018-07-11T05:11:21.400Z,12.99
2018-07-11T05:12:21.644Z,12.96
2018-07-11T05:13:21.643Z,12.94
2018-07-11T05:14:21.887Z,12.98
2018-07-11T05:15:21.366Z,13.02
2018-07-11T05:16:22.113Z,13.1
2018-07-11T05:17:21.870Z,13.1
2018-07-11T05:18:21.864Z,13.1
2018-07-11T05:19:21.594Z,13.11
2018-07-11T05:20:21.847Z,13.16
2018-07-11T05:21:21.834Z,13.01
2018-07-11T05:22:21.826Z,13.07
2018-07-11T05:23:21.824Z,13.19
2018-07-11T05:24:21.816Z,13.1
2018-07-11T05:25:21.814Z,13.16
2018-07-11T05:26:21.549Z,13.27
2018-07-11T05:27:21.541Z,13.19
2018-07-11T05:28:21.543Z,13.24
2018-07-11T05:29:21.784Z,13.17
2018-07-11T05:30:21.774Z,13.25
2018-07-11T05:31:21.767Z,13.28
2018-07-11T05:32:21.755Z,13.27
2018-07-11T05:33:21.496Z,13.32
2018-07-11T05:34:21.747Z,13.32
2018-07-11T05:35:21.738Z,13.35
2018-07-11T05:36:21.833Z,13.28
2018-07-11T05:37:21.471Z,13.28
2018-07-11T05:38:21.463Z,13.29
2018-07-11T05:39:21.708Z,13.4
2018-07-11T05:40:21.705Z,13.28
2018-07-11T05:41:21.441Z,13.37
2018-07-11T05:42:21.705Z,13.32
2018-07-11T05:43:21.681Z,13.29
2018-07-11T05:44:21.681Z,13.31
2018-07-11T05:45:21.671Z,13.36
2018-07-11T05:46:21.671Z,13.39
2018-07-11T05:47:21.658Z,13.35
2018-07-11T05:48:21.796Z,13.31
2018-07-11T05:49:21.652Z,13.39
2018-07-11T05:50:21.125Z,13.32
2018-07-11T05:51:21.374Z,13.32
2018-07-11T05:52:21.628Z,13.29
2018-07-11T05:53:21.618Z,13.31
2018-07-11T05:54:21.611Z,13.36
2018-07-11T05:55:21.602Z,13.35
2018-07-11T05:56:21.597Z,13.28
2018-07-11T05:57:21.334Z,13.28
2018-07-11T05:58:21.587Z,13.31
2018-07-11T05:59:21.578Z,13.29
2018-07-11T06:00:21.574Z,13.32
2018-07-11T06:01:21.560Z,13.4
2018-07-11T06:02:21.552Z,13.37
2018-07-11T06:03:21.292Z,13.39
2018-07-11T06:04:21.289Z,13.42
2018-07-11T06:05:21.592Z,13.4
2018-07-11T06:06:21.526Z,13.35
2018-07-11T06:07:21.525Z,13.44
2018-07-11T06:08:21.258Z,13.4
2018-07-11T06:09:21.519Z,13.44
2018-07-11T06:10:21.501Z,13.39
2018-07-11T06:11:21.241Z,13.5
2018-07-11T06:12:21.490Z,13.53
2018-07-11T06:13:21.617Z,13.47
2018-07-11T06:14:21.474Z,13.51
2018-07-11T06:15:21.471Z,13.53
2018-07-11T06:16:21.000Z,13.57
2018-07-11T06:17:21.202Z,13.6
2018-07-11T06:18:21.192Z,13.69
2018-07-11T06:19:21.443Z,13.62
2018-07-11T06:20:21.459Z,13.73
2018-07-11T06:21:21.174Z,13.69
2018-07-11T06:22:21.164Z,13.66
2018-07-11T06:23:21.418Z,13.69
2018-07-11T06:24:21.154Z,13.54
2018-07-11T06:25:21.406Z,13.63
2018-07-11T06:26:21.142Z,13.62
2018-07-11T06:27:21.457Z,13.63
2018-07-11T06:28:21.382Z,13.62
2018-07-11T06:29:21.377Z,13.68
2018-07-11T06:30:21.374Z,13.73
2018-07-11T06:31:21.364Z,13.69
2018-07-11T06:32:21.365Z,13.69
2018-07-11T06:33:21.407Z,13.72
2018-07-11T06:34:21.355Z,13.69
2018-07-11T06:35:21.348Z,13.69
2018-07-11T06:36:21.093Z,13.72
2018-07-11T06:37:21.333Z,13.68
2018-07-11T06:38:21.320Z,13.69
2018-07-11T06:39:20.868Z,13.75
2018-07-11T06:40:21.305Z,13.84
2018-07-11T06:41:21.307Z,13.78
2018-07-11T06:42:21.292Z,13.81
2018-07-11T06:43:21.289Z,13.86
2018-07-11T06:44:21.354Z,13.88
2018-07-11T06:45:21.279Z,13.87
2018-07-11T06:46:21.271Z,13.97
2018-07-11T06:47:21.266Z,13.99
2018-07-11T06:48:21.265Z,14.05
2018-07-11T06:49:21.255Z,14.09
2018-07-11T06:50:21.254Z,14.24
2018-07-11T06:51:21.243Z,14.28
2018-07-11T06:52:21.233Z,14.44
2018-07-11T06:53:21.233Z,14.49
2018-07-11T06:54:21.220Z,14.6
2018-07-11T06:55:20.951Z,14.48
2018-07-11T06:56:21.210Z,14.71
2018-07-11T06:57:21.198Z,14.63
2018-07-11T06:58:21.201Z,14.8
2018-07-11T06:59:21.194Z,14.95
2018-07-11T07:00:21.189Z,15.05
2018-07-11T07:01:21.180Z,15.07
2018-07-11T07:02:21.178Z,15.33
2018-07-11T07:03:20.929Z,15.44
2018-07-11T07:04:20.906Z,15.47
2018-07-11T07:05:21.163Z,15.62
2018-07-11T07:06:21.161Z,15.73
2018-07-11T07:07:21.145Z,16.04
2018-07-11T07:08:21.142Z,16.27
2018-07-11T07:09:21.138Z,16.54
2018-07-11T07:10:20.876Z,16.85
2018-07-11T07:11:20.878Z,16.95
2018-07-11T07:12:21.119Z,17.05
2018-07-11T07:13:21.119Z,17.13
2018-07-11T07:14:20.597Z,17.15
2018-07-11T07:15:20.854Z,17.32
2018-07-11T07:16:20.846Z,17.57
2018-07-11T07:17:20.847Z,17.63
2018-07-11T07:18:20.837Z,17.83
2018-07-11T07:19:21.137Z,17.96
2018-07-11T07:20:20.829Z,18.02
2018-07-11T07:21:21.078Z,18.23
2018-07-11T07:22:21.087Z,18.53
2018-07-11T07:23:20.825Z,18.97
2018-07-11T07:24:21.073Z,19.57
2018-07-11T07:25:20.557Z,19.86
2018-07-11T07:26:21.068Z,20
2018-07-11T07:27:21.066Z,20.22
2018-07-11T07:28:21.058Z,20.37
2018-07-11T07:29:21.053Z,20.42
2018-07-11T07:30:20.541Z,20.46
2018-07-11T07:31:21.054Z,20.44
2018-07-11T07:32:20.536Z,20.71
2018-07-11T07:33:21.047Z,20.85
2018-07-11T07:34:21.100Z,21.01
2018-07-11T07:35:20.795Z,21.16
2018-07-11T07:36:20.789Z,21.45
2018-07-11T07:37:20.784Z,21.66
2018-07-11T07:38:21.037Z,22.04
2018-07-11T07:39:21.039Z,22.14
2018-07-11T07:40:21.036Z,22.08
2018-07-11T07:41:20.783Z,21.86
2018-07-11T07:42:21.033Z,21.48
2018-07-11T07:43:21.034Z,21.08
2018-07-11T07:44:21.035Z,20.72
2018-07-11T07:45:21.030Z,20.4
2018-07-11T07:46:20.777Z,20.15
2018-07-11T07:47:21.029Z,19.97
2018-07-11T07:48:20.771Z,19.75
2018-07-11T07:49:21.032Z,19.5
2018-07-11T07:50:20.771Z,19.28
2018-07-11T07:51:21.020Z,19.16
2018-07-11T07:52:21.023Z,18.9
2018-07-11T07:53:20.759Z,18.84
2018-07-11T07:54:20.762Z,18.66
2018-07-11T07:55:20.771Z,18.53
2018-07-11T07:56:21.012Z,18.36
2018-07-11T07:57:21.020Z,18.2
2018-07-11T07:58:21.006Z,18.23
2018-07-11T07:59:21.002Z,18.14
2018-07-11T08:00:20.530Z,18.1
2018-07-11T08:01:21.009Z,18.01
2018-07-11T08:02:20.999Z,17.98
2018-07-11T08:03:20.740Z,17.84
2018-07-11T08:04:20.485Z,17.87
2018-07-11T08:05:20.739Z,17.8
2018-07-11T08:06:20.994Z,17.71
2018-07-11T08:07:20.997Z,17.79
2018-07-11T08:08:20.986Z,17.76
2018-07-11T08:09:20.987Z,17.77
2018-07-11T08:10:20.988Z,17.76
2018-07-11T08:11:20.727Z,17.83
2018-07-11T08:12:20.982Z,17.8
2018-07-11T08:13:20.984Z,17.9
2018-07-11T08:14:20.976Z,17.95
2018-07-11T08:15:20.718Z,17.94
2018-07-11T08:16:20.974Z,17.95
2018-07-11T08:17:20.962Z,17.98
2018-07-11T08:18:20.968Z,17.96
2018-07-11T08:19:20.963Z,18.14
2018-07-11T08:20:20.965Z,18.11
2018-07-11T08:21:20.711Z,18.17
2018-07-11T08:22:20.963Z,18.27
2018-07-11T08:23:20.957Z,18.32
2018-07-11T08:24:20.954Z,18.32
2018-07-11T08:25:20.692Z,18.32
2018-07-11T08:26:20.948Z,18.32
2018-07-11T08:27:20.778Z,18.38
2018-07-11T08:28:20.683Z,18.42
2018-07-11T08:29:20.944Z,18.5
2018-07-11T08:30:20.939Z,18.51
2018-07-11T08:31:20.679Z,18.5
2018-07-11T08:32:20.417Z,18.57
2018-07-11T08:33:20.678Z,18.69
2018-07-11T08:34:20.413Z,18.61
2018-07-11T08:35:20.672Z,18.76
2018-07-11T08:36:20.664Z,18.72
2018-07-11T08:37:20.409Z,18.76
2018-07-11T08:38:20.919Z,18.75
2018-07-11T08:39:20.922Z,18.82
2018-07-11T08:40:20.918Z,18.76
2018-07-11T08:41:20.654Z,18.89
2018-07-11T08:42:20.912Z,18.9
2018-07-11T08:43:20.913Z,18.94
2018-07-11T08:44:20.917Z,18.97
2018-07-11T08:45:20.903Z,18.97
2018-07-11T08:46:20.903Z,19.06
2018-07-11T08:47:20.644Z,19.06
2018-07-11T08:48:21.222Z,19.1
2018-07-11T08:49:20.381Z,19.2
2018-07-11T08:50:20.378Z,19.23
2018-07-11T08:51:20.893Z,19.23
2018-07-11T08:52:20.890Z,19.24
2018-07-11T08:53:20.631Z,19.37
2018-07-11T08:54:20.627Z,19.49
2018-07-11T08:55:20.892Z,19.49
2018-07-11T08:56:20.886Z,19.6
2018-07-11T08:57:20.882Z,19.53
2018-07-11T08:58:20.886Z,19.63
2018-07-11T08:59:20.884Z,19.53
2018-07-11T09:00:20.878Z,19.49
2018-07-11T09:01:20.617Z,19.43
2018-07-11T09:02:20.881Z,19.32
2018-07-11T09:03:20.871Z,19.3
2018-07-11T09:04:20.871Z,19.25
2018-07-11T09:05:20.872Z,19.13
2018-07-11T09:06:20.611Z,19.12
2018-07-11T09:07:20.609Z,19.09
2018-07-11T09:08:20.612Z,18.93
2018-07-11T09:09:20.859Z,19.05
2018-07-11T09:10:20.858Z,19.12
2018-07-11T09:11:20.856Z,19.19
2018-07-11T09:12:20.601Z,19.27
2018-07-11T09:13:20.856Z,19.28
2018-07-11T09:14:20.597Z,19.37
2018-07-11T09:15:20.595Z,19.32
2018-07-11T09:16:20.857Z,19.34
2018-07-11T09:17:20.595Z,19.37
2018-07-11T09:18:20.847Z,19.49
2018-07-11T09:19:20.844Z,19.4
2018-07-11T09:20:20.846Z,19.4
2018-07-11T09:21:20.844Z,19.37
2018-07-11T09:22:20.878Z,19.28
2018-07-11T09:23:20.845Z,19.25
2018-07-11T09:24:20.683Z,19.23
2018-07-11T09:25:20.836Z,19.06
2018-07-11T09:26:20.840Z,19
2018-07-11T09:27:20.835Z,18.91
2018-07-11T09:28:20.834Z,18.96
2018-07-11T09:29:20.828Z,18.9
2018-07-11T09:30:20.825Z,18.74
2018-07-11T09:31:20.821Z,18.61
2018-07-11T09:32:20.830Z,18.56
2018-07-11T09:33:20.575Z,18.36
2018-07-11T09:34:20.824Z,18.36
2018-07-11T09:35:20.815Z,18.29
2018-07-11T09:36:20.813Z,18.34
2018-07-11T09:37:20.812Z,18.21
2018-07-11T09:38:20.805Z,18.19
2018-07-11T09:39:20.808Z,18.17
2018-07-11T09:40:20.803Z,18.16
2018-07-11T09:41:20.549Z,18.19
2018-07-11T09:42:20.799Z,18.19
2018-07-11T09:43:20.284Z,18.24
2018-07-11T09:44:20.279Z,18.32
2018-07-11T09:45:20.796Z,18.35
2018-07-11T09:46:20.792Z,18.39
2018-07-11T09:47:20.791Z,18.5
2018-07-11T09:48:20.529Z,18.68
2018-07-11T09:49:20.531Z,18.69
2018-07-11T09:50:20.525Z,18.65
2018-07-11T09:51:20.786Z,18.66
2018-07-11T09:52:21.183Z,18.63
2018-07-11T09:53:20.789Z,18.72
2018-07-11T09:54:20.515Z,18.74
2018-07-11T09:55:20.769Z,18.81
2018-07-11T09:56:20.514Z,18.74
2018-07-11T09:57:20.773Z,18.72
2018-07-11T09:58:20.508Z,18.72
2018-07-11T09:59:20.507Z,18.82
2018-07-11T10:00:20.250Z,18.9
2018-07-11T10:01:20.764Z,18.87
2018-07-11T10:02:20.757Z,18.86
2018-07-11T10:03:20.759Z,18.99
2018-07-11T10:04:20.752Z,18.94
2018-07-11T10:05:20.978Z,18.91
2018-07-11T10:06:20.489Z,18.81
2018-07-11T10:07:20.749Z,18.82
2018-07-11T10:08:20.747Z,18.82
2018-07-11T10:09:20.743Z,18.72
2018-07-11T10:10:20.480Z,18.71
2018-07-11T10:11:20.743Z,18.75
2018-07-11T10:12:20.737Z,18.75
2018-07-11T10:13:20.736Z,18.59
2018-07-11T10:14:20.732Z,18.54
2018-07-11T10:15:20.779Z,18.6
2018-07-11T10:16:20.473Z,18.66
2018-07-11T10:17:20.747Z,18.57
2018-07-11T10:18:20.744Z,18.53
2018-07-11T10:19:20.723Z,18.54
2018-07-11T10:20:20.725Z,18.54
2018-07-11T10:21:20.718Z,18.44
2018-07-11T10:22:20.724Z,18.38
2018-07-11T10:23:20.459Z,18.27
2018-07-11T10:24:20.724Z,18.2
2018-07-11T10:25:20.712Z,18.34
2018-07-11T10:26:20.707Z,18.2
2018-07-11T10:27:20.705Z,18.16
2018-07-11T10:28:20.707Z,18.13
2018-07-11T10:29:20.443Z,18.03
2018-07-11T10:30:20.443Z,17.98
2018-07-11T10:31:20.700Z,18.01
2018-07-11T10:32:20.445Z,17.98
2018-07-11T10:33:20.437Z,17.98
2018-07-11T10:34:20.443Z,17.88
2018-07-11T10:35:20.698Z,17.98
2018-07-11T10:36:20.685Z,17.98
2018-07-11T10:37:20.683Z,18.03
2018-07-11T10:38:20.682Z,17.98
2018-07-11T10:39:20.680Z,17.87
2018-07-11T10:40:20.420Z,17.88
2018-07-11T10:41:20.726Z,17.87
2018-07-11T10:42:20.422Z,17.83
2018-07-11T10:43:20.412Z,17.76
2018-07-11T10:44:20.668Z,17.68
2018-07-11T10:45:20.406Z,17.49
2018-07-11T10:46:20.667Z,17.47
2018-07-11T10:47:20.656Z,17.58
2018-07-11T10:48:20.659Z,17.55
2018-07-11T10:49:20.654Z,17.52
2018-07-11T10:50:20.652Z,17.54
2018-07-11T10:51:20.653Z,17.45
2018-07-11T10:52:20.650Z,17.31
2018-07-11T10:53:20.386Z,17.3
2018-07-11T10:54:20.387Z,17.39
2018-07-11T10:55:20.637Z,17.22
2018-07-11T10:56:20.637Z,17.3
2018-07-11T10:57:20.380Z,17.24
2018-07-11T10:58:20.372Z,17.2
2018-07-11T10:59:20.375Z,17.24
2018-07-11T11:00:41.199Z,17.2
2018-07-11T11:01:21.117Z,17.28
2018-07-11T11:02:20.621Z,17.25
2018-07-11T11:03:20.614Z,17.24
2018-07-11T11:04:20.612Z,17.25
2018-07-11T11:05:20.608Z,17.43
2018-07-11T11:06:20.354Z,17.39
2018-07-11T11:07:20.599Z,17.24
2018-07-11T11:08:20.605Z,17.27
2018-07-11T11:09:20.335Z,17.36
2018-07-11T11:10:20.596Z,17.47
2018-07-11T11:11:20.592Z,17.52
2018-07-11T11:12:20.336Z,17.58
2018-07-11T11:13:20.582Z,17.66
2018-07-11T11:14:20.590Z,17.79
2018-07-11T11:15:20.582Z,17.81
2018-07-11T11:16:20.580Z,17.95
2018-07-11T11:17:20.320Z,18.11
2018-07-11T11:18:20.578Z,18.19
2018-07-11T11:19:20.578Z,18.2
2018-07-11T11:20:20.570Z,18.31
2018-07-11T11:21:20.566Z,18.35
2018-07-11T11:22:20.306Z,18.31
2018-07-11T11:23:20.561Z,18.36
2018-07-11T11:24:20.296Z,18.41
2018-07-11T11:25:20.298Z,18.57
2018-07-11T11:26:20.548Z,18.66
2018-07-11T11:27:20.290Z,18.53
2018-07-11T11:28:20.288Z,18.54
2018-07-11T11:29:20.545Z,18.42
2018-07-11T11:30:20.542Z,18.39
2018-07-11T11:31:20.539Z,18.49
2018-07-11T11:32:20.032Z,18.51
2018-07-11T11:33:20.539Z,18.61
2018-07-11T11:34:20.540Z,18.74
2018-07-11T11:35:20.531Z,18.75
2018-07-11T11:36:20.274Z,18.76
2018-07-11T11:37:20.271Z,18.76
2018-07-11T11:38:20.524Z,18.78
2018-07-11T11:39:20.518Z,18.68
2018-07-11T11:40:20.007Z,18.5
2018-07-11T11:41:20.516Z,18.57
2018-07-11T11:42:21.518Z,18.42
2018-07-11T11:43:20.254Z,18.19
2018-07-11T11:44:20.509Z,18.06
2018-07-11T11:45:20.511Z,18.05
2018-07-11T11:46:20.248Z,18.02
2018-07-11T11:47:20.502Z,17.9
2018-07-11T11:48:20.501Z,17.86
2018-07-11T11:49:20.501Z,17.79
2018-07-11T11:50:20.500Z,17.65
2018-07-11T11:51:20.239Z,17.6
2018-07-11T11:52:20.237Z,17.5
2018-07-11T11:53:20.235Z,17.6
2018-07-11T11:54:20.232Z,17.47
2018-07-11T11:55:20.485Z,17.3
2018-07-11T11:56:20.223Z,17.42
2018-07-11T11:57:20.476Z,17.3
2018-07-11T11:58:20.476Z,17.27
2018-07-11T11:59:20.480Z,17.22
2018-07-11T12:00:20.472Z,17.3
2018-07-11T12:01:20.467Z,17.25
2018-07-11T12:02:20.208Z,17.28
2018-07-11T12:03:20.204Z,17.28
2018-07-11T12:04:20.476Z,17.25
2018-07-11T12:05:20.460Z,17.25
2018-07-11T12:06:20.454Z,17.2
2018-07-11T12:07:20.659Z,17.4
2018-07-11T12:08:20.448Z,17.6
2018-07-11T12:09:20.459Z,17.55
2018-07-11T12:10:20.445Z,17.71
2018-07-11T12:11:20.439Z,17.87
2018-07-11T12:12:20.439Z,17.99
2018-07-11T12:13:20.434Z,18.19
2018-07-11T12:14:20.430Z,18.34
2018-07-11T12:15:20.432Z,18.44
2018-07-11T12:16:20.430Z,18.5
2018-07-11T12:17:20.424Z,18.57
2018-07-11T12:18:20.423Z,18.53
2018-07-11T12:19:20.421Z,18.47
2018-07-11T12:20:20.419Z,18.54
2018-07-11T12:21:20.355Z,18.5
2018-07-11T12:22:20.157Z,18.44
2018-07-11T12:23:20.154Z,18.42
2018-07-11T12:24:20.417Z,18.38
2018-07-11T12:25:20.409Z,18.31
2018-07-11T12:26:20.404Z,18.36
2018-07-11T12:27:20.396Z,18.44
2018-07-11T12:28:20.139Z,18.54
2018-07-11T12:29:20.396Z,18.54
2018-07-11T12:30:20.398Z,18.51
2018-07-11T12:31:20.398Z,18.5
2018-07-11T12:32:20.392Z,18.54
2018-07-11T12:33:20.388Z,18.54
2018-07-11T12:34:20.127Z,18.66
2018-07-11T12:35:20.386Z,18.49
2018-07-11T12:36:20.131Z,18.66
2018-07-11T12:37:20.124Z,18.63
2018-07-11T12:38:20.381Z,18.69
2018-07-11T12:39:20.370Z,18.76
2018-07-11T12:40:20.114Z,18.65
2018-07-11T12:41:20.372Z,18.69
2018-07-11T12:42:20.383Z,18.71
2018-07-11T12:43:19.850Z,18.78
2018-07-11T12:44:20.365Z,18.9
2018-07-11T12:45:20.366Z,18.9
2018-07-11T12:46:20.359Z,18.9
2018-07-11T12:47:20.354Z,19
2018-07-11T12:48:19.847Z,19
2018-07-11T12:49:20.353Z,18.99
2018-07-11T12:50:20.350Z,19.05
2018-07-11T12:51:20.359Z,19.17
2018-07-11T12:52:20.354Z,19.24
2018-07-11T12:53:20.091Z,19.34
2018-07-11T12:54:20.347Z,19.45
2018-07-11T12:55:20.345Z,19.37
2018-07-11T12:56:20.343Z,19.53
2018-07-11T12:57:19.826Z,19.68
2018-07-11T12:58:20.388Z,19.83